createdAt,value
2019-02-26T00:04:20.854Z,3.94
2019-02-26T00:07:06.729Z,3.98
2019-02-26T00:09:55.825Z,3.82
2019-02-26T00:12:26.279Z,3.95
2019-02-26T00:14:55.023Z,3.89
2019-02-26T00:17:45.855Z,3.92
2019-02-26T00:20:34.350Z,3.88
2019-02-26T00:23:04.408Z,3.84
2019-02-26T00:25:32.857Z,3.73
2019-02-26T00:28:01.244Z,3.75
2019-02-26T00:30:31.273Z,3.84
2019-02-26T00:33:02.209Z,3.80
2019-02-26T00:35:29.959Z,3.87
2019-02-26T00:37:58.339Z,3.90
2019-02-26T00:40:26.794Z,3.96
2019-02-26T00:42:57.574Z,3.95
2019-02-26T00:45:27.358Z,3.99
2019-02-26T00:47:55.421Z,4.05
2019-02-26T00:50:23.800Z,4.07
2019-02-26T00:52:54.422Z,4.04
2019-02-26T00:55:25.247Z,4.02
2019-02-26T00:57:52.397Z,4.02
2019-02-26T01:00:20.771Z,4.07
2019-02-26T01:02:49.161Z,4.09
2019-02-26T01:05:17.545Z,4.11
2019-02-26T01:07:47.414Z,4.00
2019-02-26T01:10:19.271Z,4.03
2019-02-26T01:12:46.803Z,3.99
2019-02-26T01:15:34.519Z,4.04
2019-02-26T01:18:22.868Z,4.06
2019-02-26T01:23:39.580Z,3.79
2019-02-26T01:26:27.832Z,3.94
2019-02-26T01:28:58.601Z,4.01
2019-02-26T01:31:29.077Z,4.06
2019-02-26T01:34:18.147Z,4.10
2019-02-26T01:36:49.046Z,4.12
2019-02-26T01:39:38.390Z,4.08
2019-02-26T01:42:06.165Z,3.98
2019-02-26T01:50:16.091Z,3.98
2019-02-26T01:52:44.938Z,4.05
2019-02-26T01:55:13.323Z,3.87
2019-02-26T01:58:21.621Z,3.95
2019-02-26T02:00:50.002Z,3.95
2019-02-26T02:03:37.632Z,3.95
2019-02-26T02:11:29.407Z,3.55
2019-02-26T02:14:01.868Z,3.58
2019-02-26T02:16:47.179Z,3.50
2019-02-26T02:19:18.125Z,3.42
2019-02-26T02:22:04.919Z,3.39
2019-02-26T02:24:53.968Z,3.37
2019-02-26T02:27:25.216Z,3.37
2019-02-26T02:29:55.207Z,3.30
2019-02-26T02:35:50.222Z,2.94
2019-02-26T02:40:54.780Z,3.00
2019-02-26T02:43:23.569Z,3.02
2019-02-26T02:45:55.119Z,3.08
2019-02-26T02:48:22.685Z,3.09
2019-02-26T02:51:13.483Z,3.08
2019-02-26T02:53:59.543Z,3.10
2019-02-26T02:56:27.921Z,3.10
2019-02-26T02:58:56.308Z,3.10
2019-02-26T03:01:45.802Z,3.01
2019-02-26T03:04:17.295Z,3.08
2019-02-26T03:06:44.004Z,3.08
2019-02-26T03:09:52.304Z,3.04
2019-02-26T03:12:20.679Z,2.96
2019-02-26T03:15:10.101Z,2.72
2019-02-26T03:17:38.733Z,2.87
2019-02-26T03:20:47.035Z,3.01
2019-02-26T03:23:19.532Z,3.12
2019-02-26T03:28:37.066Z,2.93
2019-02-26T03:33:50.521Z,3.00
2019-02-26T03:36:40.196Z,2.99
2019-02-26T03:39:27.382Z,3.09
2019-02-26T03:41:56.455Z,2.85
2019-02-26T03:44:29.534Z,2.98
2019-02-26T03:49:43.416Z,3.11
2019-02-26T03:52:15.390Z,2.89
2019-02-26T03:55:03.362Z,2.80
2019-02-26T03:58:11.027Z,2.92
2019-02-26T04:03:35.280Z,3.01
2019-02-26T04:06:46.731Z,2.97
2019-02-26T04:09:16.475Z,2.89
2019-02-26T04:11:45.524Z,2.90
2019-02-26T04:14:17.372Z,2.61
2019-02-26T04:16:44.066Z,2.46
2019-02-26T04:22:26.341Z,2.27
2019-02-26T04:25:36.479Z,2.44
2019-02-26T04:28:46.963Z,2.55
2019-02-26T04:31:54.767Z,2.18
2019-02-26T04:35:03.584Z,2.40
2019-02-26T04:38:11.933Z,2.24
2019-02-26T04:41:20.224Z,2.40
2019-02-26T04:44:30.825Z,2.56
2019-02-26T04:47:00.334Z,2.68
2019-02-26T04:49:30.912Z,2.76
2019-02-26T04:51:59.107Z,2.81
2019-02-26T04:57:34.060Z,2.77
2019-02-26T05:05:53.743Z,2.78
2019-02-26T05:09:02.762Z,2.87
2019-02-26T05:11:34.468Z,2.81
2019-02-26T05:14:01.057Z,2.78
2019-02-26T05:16:48.695Z,2.74
2019-02-26T05:19:19.075Z,2.79
2019-02-26T05:21:47.418Z,2.71
2019-02-26T05:24:18.022Z,2.66
2019-02-26T05:26:45.910Z,2.59
2019-02-26T05:29:33.613Z,2.66
2019-02-26T05:32:04.087Z,2.56
2019-02-26T05:34:32.132Z,2.55
2019-02-26T05:37:02.362Z,2.56
2019-02-26T05:39:30.655Z,2.55
2019-02-26T05:42:01.266Z,2.60
2019-02-26T05:44:29.181Z,2.65
2019-02-26T05:47:20.708Z,2.63
2019-02-26T05:49:46.925Z,2.50
2019-02-26T05:52:15.317Z,2.38
2019-02-26T05:55:02.933Z,2.32
2019-02-26T05:57:32.486Z,2.31
2019-02-26T06:00:01.465Z,2.22
2019-02-26T06:02:51.023Z,2.37
2019-02-26T06:05:20.458Z,2.41
2019-02-26T06:07:49.350Z,2.23
2019-02-26T06:10:37.008Z,2.42
2019-02-26T06:13:24.533Z,2.35
2019-02-26T06:16:12.201Z,2.46
2019-02-26T06:18:41.999Z,2.52
2019-02-26T06:21:29.807Z,2.47
2019-02-26T06:23:58.187Z,2.28
2019-02-26T06:26:45.790Z,2.31
2019-02-26T06:29:35.076Z,2.39
2019-02-26T06:32:27.372Z,2.47
2019-02-26T06:38:01.985Z,2.56
2019-02-26T06:40:51.368Z,2.71
2019-02-26T06:43:40.009Z,2.75
2019-02-26T06:46:11.219Z,2.86
2019-02-26T06:48:38.999Z,2.92
2019-02-26T06:51:07.393Z,3.06
2019-02-26T06:53:35.759Z,3.17
2019-02-26T06:56:23.265Z,3.36
2019-02-26T06:58:51.639Z,3.57
2019-02-26T07:01:20.029Z,3.89
2019-02-26T07:03:48.409Z,4.61
2019-02-26T07:06:37.995Z,5.67
2019-02-26T07:09:46.155Z,6.54
2019-02-26T07:12:16.514Z,7.36
2019-02-26T07:15:03.756Z,8.27
2019-02-26T07:17:34.314Z,9.17
2019-02-26T07:20:03.195Z,10.16
2019-02-26T07:22:32.383Z,9.73
2019-02-26T07:25:00.764Z,10.08
2019-02-26T07:27:31.402Z,10.02
2019-02-26T07:30:11.389Z,11.03
2019-02-26T07:32:58.899Z,12.20
2019-02-26T07:35:28.756Z,13.39
2019-02-26T07:38:18.258Z,14.59
2019-02-26T07:43:36.678Z,16.77
2019-02-26T07:46:04.179Z,17.96
2019-02-26T07:48:53.886Z,18.69
2019-02-26T07:51:22.061Z,19.28
2019-02-26T07:54:09.700Z,19.67
2019-02-26T07:56:38.110Z,19.92
2019-02-26T08:02:13.656Z,21.92
2019-02-26T08:05:02.555Z,22.94
2019-02-26T08:07:30.944Z,23.82
2019-02-26T08:10:19.551Z,24.67
2019-02-26T08:13:08.053Z,25.41
2019-02-26T08:15:57.675Z,26.08
2019-02-26T08:18:25.720Z,26.79
2019-02-26T08:20:56.880Z,27.03
2019-02-26T08:23:26.261Z,26.93
2019-02-26T08:25:55.662Z,26.61
2019-02-26T08:28:45.752Z,26.68
2019-02-26T08:34:01.328Z,26.90
2019-02-26T08:37:09.619Z,27.19
2019-02-26T08:39:57.765Z,27.03
2019-02-26T08:42:27.237Z,27.49
2019-02-26T08:45:15.869Z,28.05
2019-02-26T08:48:04.095Z,28.26
2019-02-26T08:50:35.748Z,27.63
2019-02-26T08:53:24.241Z,27.95
2019-02-26T08:55:53.636Z,26.95
2019-02-26T08:58:23.527Z,27.19
2019-02-26T09:03:40.857Z,27.43
2019-02-26T09:06:13.251Z,27.67
2019-02-26T09:09:00.155Z,28.39
2019-02-26T09:11:31.204Z,28.71
2019-02-26T09:14:01.911Z,29.07
2019-02-26T09:16:51.952Z,28.96
2019-02-26T09:21:54.651Z,29.45
2019-02-26T09:24:22.732Z,29.64
2019-02-26T09:26:52.104Z,29.48
2019-02-26T09:29:22.238Z,29.44
2019-02-26T09:32:11.744Z,29.57
2019-02-26T09:34:40.933Z,29.45
2019-02-26T09:37:28.561Z,29.09
2019-02-26T09:40:17.224Z,29.09
2019-02-26T09:42:47.978Z,29.36
2019-02-26T09:45:56.207Z,29.34
2019-02-26T09:48:45.302Z,28.87
2019-02-26T09:51:14.794Z,29.01
2019-02-26T09:54:03.051Z,29.10
2019-02-26T09:56:31.428Z,28.39
2019-02-26T09:59:19.167Z,28.29
2019-02-26T10:02:06.819Z,28.56
2019-02-26T10:04:54.531Z,27.82
2019-02-26T10:07:22.899Z,27.64
2019-02-26T10:10:11.494Z,27.06
2019-02-26T10:12:40.647Z,26.84
2019-02-26T10:15:28.380Z,26.65
2019-02-26T10:17:58.783Z,26.45
2019-02-26T10:21:09.164Z,26.33
2019-02-26T10:23:36.896Z,25.28
2019-02-26T10:26:26.407Z,25.38
2019-02-26T10:28:59.034Z,25.50
2019-02-26T10:31:27.490Z,25.70
2019-02-26T10:33:55.051Z,25.56
2019-02-26T10:36:39.969Z,25.36
2019-02-26T10:38:54.991Z,24.92
2019-02-26T10:41:23.741Z,24.60
2019-02-26T10:47:00.689Z,24.12
2019-02-26T10:49:49.112Z,23.73
2019-02-26T10:52:19.418Z,23.37
2019-02-26T10:55:07.502Z,22.83
2019-02-26T10:57:36.606Z,22.23
2019-02-26T11:00:45.167Z,21.68
2019-02-26T11:03:35.454Z,21.23
2019-02-26T11:06:04.771Z,21.13
2019-02-26T11:08:35.081Z,20.65
2019-02-26T11:11:04.808Z,20.74
2019-02-26T11:13:33.314Z,20.40
2019-02-26T11:16:03.072Z,20.29
2019-02-26T11:18:31.838Z,20.02
2019-02-26T11:21:19.498Z,19.78
2019-02-26T11:23:47.880Z,19.32
2019-02-26T11:26:38.032Z,18.94
2019-02-26T11:31:53.011Z,19.13
2019-02-26T11:34:40.673Z,18.94
2019-02-26T11:37:29.623Z,19.00
2019-02-26T11:40:19.769Z,18.96
2019-02-26T11:45:54.346Z,19.16
2019-02-26T11:51:12.069Z,18.97
2019-02-26T11:54:02.540Z,19.11
2019-02-26T11:56:30.241Z,19.25
2019-02-26T11:58:58.781Z,19.18
2019-02-26T12:01:46.563Z,18.94
2019-02-26T12:04:17.014Z,18.85
2019-02-26T12:06:45.143Z,19.17
2019-02-26T12:09:14.278Z,19.18
2019-02-26T12:11:43.739Z,19.05
2019-02-26T12:14:31.431Z,19.37
2019-02-26T12:17:18.976Z,19.33
2019-02-26T12:19:48.569Z,19.51
2019-02-26T12:22:36.735Z,19.63
2019-02-26T12:25:47.131Z,19.23
2019-02-26T12:28:15.210Z,19.27
2019-02-26T12:30:46.111Z,19.06
2019-02-26T12:33:14.792Z,19.13
2019-02-26T12:35:43.955Z,19.19
2019-02-26T12:38:17.927Z,19.31
2019-02-26T12:41:01.773Z,19.31
2019-02-26T12:43:32.976Z,19.56
2019-02-26T12:46:01.382Z,19.65
2019-02-26T12:48:30.567Z,19.73
2019-02-26T12:51:01.401Z,19.70
2019-02-26T12:53:29.110Z,19.79
2019-02-26T12:56:01.942Z,19.92
2019-02-26T12:58:28.109Z,19.83
2019-02-26T13:01:16.933Z,19.81
2019-02-26T13:06:34.414Z,20.17
2019-02-26T13:12:12.453Z,20.43
2019-02-26T13:14:41.421Z,20.69
2019-02-26T13:19:44.171Z,20.80
2019-02-26T13:22:17.291Z,20.82
2019-02-26T13:25:03.670Z,20.68
2019-02-26T13:27:32.040Z,20.34
2019-02-26T13:30:19.538Z,20.25
2019-02-26T13:32:56.361Z,20.42
2019-02-26T13:38:34.142Z,20.10
2019-02-26T13:41:19.854Z,20.07
2019-02-26T13:43:45.510Z,20.23
2019-02-26T13:46:33.170Z,20.15
2019-02-26T13:49:01.590Z,19.91
2019-02-26T13:54:17.455Z,19.97
2019-02-26T13:57:05.093Z,20.15
2019-02-26T13:59:52.723Z,19.95
2019-02-26T14:02:40.231Z,20.08
2019-02-26T14:05:48.522Z,20.17
2019-02-26T14:08:16.913Z,20.37
2019-02-26T14:13:32.753Z,20.70
2019-02-26T14:16:01.135Z,20.71
2019-02-26T14:18:48.646Z,20.44
2019-02-26T14:21:36.272Z,20.18
2019-02-26T14:24:44.569Z,20.23
2019-02-26T14:27:12.953Z,19.87
2019-02-26T14:29:41.345Z,19.83
2019-02-26T14:32:09.736Z,19.58
2019-02-26T14:34:57.245Z,19.59
2019-02-26T14:37:25.629Z,19.82
2019-02-26T14:40:13.271Z,20.02
2019-02-26T14:42:41.662Z,20.18
2019-02-26T14:45:49.975Z,20.19
2019-02-26T14:48:18.374Z,20.12
2019-02-26T14:51:06.000Z,20.32
2019-02-26T14:53:34.401Z,20.38
2019-02-26T14:56:04.518Z,20.48
2019-02-26T14:58:52.158Z,20.29
2019-02-26T15:04:08.027Z,20.53
2019-02-26T15:06:55.884Z,20.49
2019-02-26T15:09:43.348Z,20.32
2019-02-26T15:12:11.732Z,20.14
2019-02-26T15:14:40.126Z,19.62
2019-02-26T15:17:27.623Z,19.69
2019-02-26T15:19:56.019Z,19.49
2019-02-26T15:22:24.401Z,19.28
2019-02-26T15:25:12.041Z,19.36
2019-02-26T15:27:40.431Z,19.01
2019-02-26T15:30:28.243Z,18.96
2019-02-26T15:32:56.630Z,19.01
2019-02-26T15:35:46.887Z,19.27
2019-02-26T15:38:15.959Z,19.07
2019-02-26T15:40:44.359Z,18.96
2019-02-26T15:46:02.444Z,19.27
2019-02-26T15:48:50.088Z,19.11
2019-02-26T15:51:20.086Z,19.15
2019-02-26T15:53:48.866Z,19.23
2019-02-26T15:56:36.488Z,19.21
2019-02-26T15:59:06.621Z,19.19
2019-02-26T16:01:55.548Z,18.93
2019-02-26T16:04:24.470Z,19.02
2019-02-26T16:07:12.100Z,18.83
2019-02-26T16:09:40.497Z,18.84
2019-02-26T16:12:28.123Z,18.73
2019-02-26T16:15:15.765Z,18.63
2019-02-26T16:18:03.265Z,18.51
2019-02-26T16:20:51.071Z,18.46
2019-02-26T16:23:38.569Z,18.23
2019-02-26T16:26:08.081Z,18.11
2019-02-26T16:28:37.247Z,17.96
2019-02-26T16:31:05.638Z,17.86
2019-02-26T16:33:34.022Z,17.81
2019-02-26T16:36:21.656Z,17.84
2019-02-26T16:38:51.442Z,17.78
2019-02-26T16:41:39.272Z,17.54
2019-02-26T16:44:26.769Z,17.41
2019-02-26T16:47:15.242Z,17.38
2019-02-26T16:50:12.766Z,17.29
2019-02-26T16:52:53.232Z,17.17
2019-02-26T16:56:01.532Z,16.85
2019-02-26T16:58:29.913Z,16.60
2019-02-26T17:07:06.631Z,15.93
2019-02-26T17:09:35.013Z,15.72
2019-02-26T17:12:03.406Z,15.57
2019-02-26T17:14:31.794Z,15.37
2019-02-26T17:17:03.876Z,15.21
2019-02-26T17:19:32.256Z,15.07
2019-02-26T17:22:01.791Z,14.80
2019-02-26T17:24:30.757Z,14.59
2019-02-26T17:27:18.260Z,14.34
2019-02-26T17:29:49.599Z,14.16
2019-02-26T17:32:16.767Z,13.94
2019-02-26T17:34:45.146Z,13.65
2019-02-26T17:37:13.542Z,13.45
2019-02-26T17:40:03.321Z,13.30
2019-02-26T17:42:51.309Z,13.11
2019-02-26T17:45:39.872Z,12.93
2019-02-26T17:48:08.250Z,12.79
2019-02-26T17:51:18.763Z,12.73
2019-02-26T17:56:34.104Z,12.44
2019-02-26T18:01:49.950Z,12.32
2019-02-26T18:04:37.600Z,12.28
2019-02-26T18:07:25.244Z,12.23
2019-02-26T18:10:13.498Z,12.09
2019-02-26T18:13:02.232Z,11.94
2019-02-26T18:18:37.189Z,11.75
2019-02-26T18:21:06.532Z,11.68
2019-02-26T18:23:55.119Z,11.21
2019-02-26T18:26:42.765Z,11.21
2019-02-26T18:29:30.402Z,11.16
2019-02-26T18:32:18.042Z,10.90
2019-02-26T18:34:46.423Z,10.63
2019-02-26T18:37:36.190Z,10.52
2019-02-26T18:40:44.470Z,10.45
2019-02-26T18:43:32.111Z,10.36
2019-02-26T18:46:01.257Z,10.28
2019-02-26T18:48:30.633Z,10.10
2019-02-26T18:50:59.720Z,9.87
2019-02-26T18:56:16.584Z,9.70
2019-02-26T18:58:46.642Z,9.67
2019-02-26T19:01:34.189Z,9.68
2019-02-26T19:04:02.571Z,9.62
2019-02-26T19:06:30.965Z,9.44
2019-02-26T19:09:18.588Z,9.40
2019-02-26T19:11:46.975Z,9.38
2019-02-26T19:14:34.468Z,9.30
2019-02-26T19:17:02.868Z,9.05
2019-02-26T19:22:59.520Z,8.99
2019-02-26T19:25:28.786Z,8.93
2019-02-26T19:28:16.420Z,8.93
2019-02-26T19:30:44.804Z,8.79
2019-02-26T19:33:13.192Z,8.74
2019-02-26T19:38:29.023Z,8.47
2019-02-26T19:41:16.745Z,8.23
2019-02-26T19:46:38.895Z,7.95
2019-02-26T19:49:07.275Z,7.94
2019-02-26T19:51:35.661Z,7.66
2019-02-26T19:54:04.728Z,7.20
2019-02-26T19:56:34.155Z,7.34
2019-02-26T19:59:02.546Z,7.33
2019-02-26T20:01:50.181Z,7.38
2019-02-26T20:07:25.127Z,7.19
2019-02-26T20:10:15.027Z,7.13
2019-02-26T20:13:03.978Z,7.10
2019-02-26T20:18:40.184Z,7.12
2019-02-26T20:21:27.675Z,6.87
2019-02-26T20:24:16.605Z,6.75
2019-02-26T20:27:04.548Z,6.58
2019-02-26T20:29:52.053Z,6.62
2019-02-26T20:32:20.443Z,6.61
2019-02-26T20:34:48.824Z,6.53
2019-02-26T20:37:36.559Z,6.54
2019-02-26T20:40:48.687Z,6.54
2019-02-26T20:43:14.948Z,6.56
2019-02-26T20:46:02.444Z,6.50
2019-02-26T20:48:30.836Z,6.40
2019-02-26T20:50:59.227Z,5.96
2019-02-26T20:53:27.613Z,5.97
2019-02-26T20:55:57.610Z,5.85
2019-02-26T21:01:00.514Z,5.76
2019-02-26T21:03:48.145Z,5.75
2019-02-26T21:06:35.773Z,5.85
2019-02-26T21:09:44.065Z,5.50
2019-02-26T21:14:59.910Z,5.58
2019-02-26T21:17:28.295Z,5.63
2019-02-26T21:20:35.266Z,5.55
2019-02-26T21:23:03.658Z,5.63
2019-02-26T21:25:43.900Z,5.64
2019-02-26T21:28:09.596Z,5.55
2019-02-26T21:30:50.444Z,5.63
2019-02-26T21:33:18.831Z,5.62
2019-02-26T21:36:06.452Z,5.56
2019-02-26T21:41:28.089Z,5.44
2019-02-26T21:43:56.502Z,5.42
2019-02-26T21:49:12.333Z,5.34
2019-02-26T21:51:40.722Z,5.26
2019-02-26T21:54:09.336Z,5.28
2019-02-26T21:56:57.052Z,5.14
2019-02-26T21:59:50.052Z,5.07
2019-02-26T22:02:34.129Z,5.02
2019-02-26T22:05:21.764Z,4.99
2019-02-26T22:08:09.398Z,4.86
2019-02-26T22:10:37.781Z,4.74
2019-02-26T22:13:06.173Z,4.65
2019-02-26T22:15:36.168Z,4.61
2019-02-26T22:18:25.453Z,4.69
2019-02-26T22:21:13.075Z,4.72
2019-02-26T22:23:41.465Z,4.75
2019-02-26T22:29:16.642Z,4.55
2019-02-26T22:32:04.267Z,4.57
2019-02-26T22:34:32.663Z,4.58
2019-02-26T22:37:20.291Z,4.61
2019-02-26T22:39:48.684Z,4.52
2019-02-26T22:42:38.862Z,4.52
2019-02-26T22:45:46.342Z,4.51
2019-02-26T22:51:02.182Z,4.51
2019-02-26T22:53:49.904Z,4.19
2019-02-26T22:56:18.293Z,4.29
2019-02-26T22:58:46.674Z,4.34
2019-02-26T23:01:54.978Z,4.37
2019-02-26T23:04:42.722Z,4.31
2019-02-26T23:07:11.282Z,4.17
2019-02-26T23:09:58.781Z,4.11
2019-02-26T23:12:46.274Z,3.92
2019-02-26T23:15:14.665Z,3.99
2019-02-26T23:18:22.949Z,3.97
2019-02-26T23:21:31.240Z,3.93
2019-02-26T23:23:59.627Z,3.84
2019-02-26T23:29:55.342Z,3.82
2019-02-26T23:33:03.864Z,3.75
2019-02-26T23:36:12.162Z,3.68
2019-02-26T23:38:44.038Z,3.45
2019-02-26T23:41:50.884Z,3.18
2019-02-26T23:44:38.388Z,3.20
2019-02-26T23:50:34.084Z,3.36
2019-02-26T23:55:49.912Z,3.40
2019-02-26T23:58:37.408Z,3.44
